Time;durP1;ratioP1;P1;durP2;ratioP2;P2;SDS_P1;SDS_P2;PMS_P1;PMS_P2;Temp;Humidity;BMP_temperature;BMP_pressure;BME280_temperature;BME280_humidity;BME280_pressure;Samples;Min_cycle;Max_cycle;Signal;HPM_P1;HPM_P2
2023/02/12 00:01:07;;;;;;;17.75;10.40;;;8.00;99.90;;;;;;5033824;28;20229;-66
2023/02/12 00:03:35;;;;;;;15.95;10.30;;;8.00;99.90;;;;;;5033543;28;20209;-67
2023/02/12 00:06:02;;;;;;;12.25;9.50;;;8.00;99.90;;;;;;5033628;28;20210;-66
2023/02/12 00:08:29;;;;;;;11.10;8.63;;;7.90;99.90;;;;;;5033313;28;20577;-67
2023/02/12 00:10:57;;;;;;;19.67;10.43;;;8.00;99.90;;;;;;5033172;28;20229;-66
2023/02/12 00:13:24;;;;;;;20.50;9.98;;;8.00;99.90;;;;;;5032907;28;20666;-66
2023/02/12 00:15:51;;;;;;;20.65;9.88;;;7.90;99.90;;;;;;5033574;28;20694;-66
2023/02/12 00:18:18;;;;;;;17.65;9.70;;;7.90;99.90;;;;;;5033719;28;20225;-66
2023/02/12 00:20:44;;;;;;;11.75;8.50;;;7.90;99.90;;;;;;5033060;28;20233;-66
2023/02/12 00:23:11;;;;;;;19.52;10.18;;;7.80;99.90;;;;;;5033412;28;20202;-67
2023/02/12 00:25:41;;;;;;;15.85;9.90;;;7.80;99.90;;;;;;5033216;28;20624;-66
2023/02/12 00:28:09;;;;;;;16.42;8.73;;;7.80;99.90;;;;;;5037251;28;20208;-66
2023/02/12 00:30:36;;;;;;;15.40;9.32;;;7.80;99.90;;;;;;5036860;28;20245;-67
2023/02/12 00:33:03;;;;;;;19.52;9.38;;;7.80;99.90;;;;;;5036892;28;20597;-66
2023/02/12 00:35:30;;;;;;;13.25;8.90;;;7.90;99.90;;;;;;5037017;28;20226;-66
2023/02/12 00:37:57;;;;;;;18.80;9.93;;;7.80;99.90;;;;;;5037072;28;20209;-66
2023/02/12 00:40:23;;;;;;;13.27;9.10;;;7.80;99.90;;;;;;5036703;28;20669;-66
2023/02/12 00:42:50;;;;;;;15.60;10.60;;;7.80;99.90;;;;;;5036933;28;20547;-66
2023/02/12 00:45:18;;;;;;;16.98;10.15;;;7.80;99.90;;;;;;5037479;28;20651;-66
2023/02/12 00:47:45;;;;;;;12.10;9.25;;;7.70;99.90;;;;;;5036915;28;20202;-65
2023/02/12 00:50:12;;;;;;;21.23;10.50;;;7.70;99.90;;;;;;5036841;28;20206;-66
2023/02/12 00:52:39;;;;;;;19.08;10.30;;;7.70;99.90;;;;;;5036458;28;20202;-66
2023/02/12 00:55:06;;;;;;;17.63;9.25;;;7.70;99.90;;;;;;5036193;28;20695;-66
2023/02/12 00:57:33;;;;;;;22.73;9.82;;;7.70;99.90;;;;;;5036682;28;20222;-66
2023/02/12 00:59:59;;;;;;;17.52;10.90;;;7.70;99.90;;;;;;5036241;28;20233;-67
2023/02/12 01:02:28;;;;;;;13.90;9.70;;;7.60;99.90;;;;;;5036304;28;20232;-66
2023/02/12 01:04:55;;;;;;;14.27;9.60;;;7.60;99.90;;;;;;5036597;28;20198;-65
2023/02/12 01:07:21;;;;;;;17.38;9.95;;;7.60;99.90;;;;;;5036492;28;20670;-67
2023/02/12 01:09:48;;;;;;;18.27;10.02;;;7.60;99.90;;;;;;5036204;28;20286;-67
2023/02/12 01:12:15;;;;;;;16.65;10.77;;;7.60;99.90;;;;;;5036275;28;20233;-66
2023/02/12 01:14:42;;;;;;;27.60;11.30;;;7.60;99.90;;;;;;5036901;28;20202;-67
2023/02/12 01:17:09;;;;;;;19.10;10.82;;;7.60;99.90;;;;;;5036745;28;20222;-67
2023/02/12 01:19:37;;;;;;;24.50;11.30;;;7.50;99.90;;;;;;5036489;28;20202;-67
2023/02/12 01:22:04;;;;;;;19.60;11.38;;;7.50;99.90;;;;;;5036157;28;20226;-66
2023/02/12 01:24:31;;;;;;;20.50;12.60;;;7.50;99.90;;;;;;5036133;28;20206;-67
2023/02/12 01:26:57;;;;;;;19.10;11.00;;;7.50;99.90;;;;;;5035980;28;20213;-66
2023/02/12 01:29:24;;;;;;;14.88;11.32;;;7.50;99.90;;;;;;5035995;28;20202;-66
2023/02/12 01:31:51;;;;;;;15.93;11.85;;;7.50;99.90;;;;;;5035434;28;20607;-67
2023/02/12 01:34:18;;;;;;;18.08;13.45;;;7.50;99.90;;;;;;5036749;28;20544;-66
2023/02/12 01:36:46;;;;;;;16.33;11.70;;;7.50;99.90;;;;;;5035741;28;20705;-66
2023/02/12 01:39:14;;;;;;;17.88;11.85;;;7.50;99.90;;;;;;5035313;28;20210;-66
2023/02/12 01:41:43;;;;;;;24.48;13.48;;;7.50;99.90;;;;;;5035867;28;20232;-66
2023/02/12 01:44:14;;;;;;;20.23;11.80;;;7.50;99.90;;;;;;5036407;28;20198;-66
2023/02/12 01:46:42;;;;;;;17.60;11.82;;;7.50;99.90;;;;;;5035834;28;20191;-66
2023/02/12 01:49:12;;;;;;;17.77;11.60;;;7.50;99.90;;;;;;5035793;28;20210;-66
2023/02/12 01:51:40;;;;;;;23.33;12.95;;;7.50;99.90;;;;;;5035741;28;20693;-67
2023/02/12 01:54:11;;;;;;;21.35;12.15;;;7.50;99.90;;;;;;5035362;28;20213;-66
2023/02/12 01:56:39;;;;;;;17.23;11.45;;;7.50;99.90;;;;;;5035655;28;20214;-65
2023/02/12 01:59:06;;;;;;;23.13;12.82;;;7.50;99.90;;;;;;5035795;28;20205;-66
2023/02/12 02:01:34;;;;;;;19.52;11.90;;;7.50;99.90;;;;;;5035993;28;20226;-66
2023/02/12 02:04:04;;;;;;;26.60;13.38;;;7.50;99.90;;;;;;5036044;28;20216;-66
2023/02/12 02:06:34;;;;;;;23.02;13.43;;;7.50;99.90;;;;;;5035509;28;20662;-65
2023/02/12 02:09:01;;;;;;;20.10;13.68;;;7.50;99.90;;;;;;5035339;28;20209;-66
2023/02/12 02:14:32;;;;;;;23.08;13.52;;;7.50;99.90;;;;;;5035546;28;20209;-66
2023/02/12 02:17:20;;;;;;;26.73;14.68;;;7.50;99.90;;;;;;5035434;28;20209;-65
2023/02/12 02:20:25;;;;;;;23.70;13.07;;;7.40;99.90;;;;;;5034960;28;20209;-65
2023/02/12 02:23:09;;;;;;;25.85;13.35;;;7.50;99.90;;;;;;5031438;28;20205;-66
2023/02/12 02:26:22;;;;;;;18.77;14.05;;;7.50;99.90;;;;;;5034662;28;20561;-65
2023/02/12 02:29:20;;;;;;;21.25;13.05;;;7.50;99.90;;;;;;5034705;28;20658;-65
2023/02/12 02:31:55;;;;;;;27.83;12.50;;;7.50;99.90;;;;;;5034910;28;20234;-66
2023/02/12 02:34:28;;;;;;;22.48;11.88;;;7.50;99.90;;;;;;5035643;28;20556;-65
2023/02/12 02:37:04;;;;;;;21.42;13.48;;;7.50;99.90;;;;;;5035747;28;20297;-65
2023/02/12 02:39:39;;;;;;;23.80;12.25;;;7.50;99.90;;;;;;5035648;28;20190;-66
2023/02/12 02:42:12;;;;;;;20.35;13.30;;;7.50;99.90;;;;;;5035320;28;20222;-66
2023/02/12 02:44:44;;;;;;;25.88;13.93;;;7.50;99.90;;;;;;5034872;28;20199;-66
2023/02/12 02:47:15;;;;;;;20.77;12.13;;;7.50;99.90;;;;;;5034542;28;20183;-66
2023/02/12 02:49:45;;;;;;;20.17;12.90;;;7.50;99.90;;;;;;5033789;28;20194;-66
2023/02/12 02:52:20;;;;;;;16.67;12.43;;;7.50;99.90;;;;;;5034432;28;20226;-65
2023/02/12 02:54:52;;;;;;;20.25;13.35;;;7.50;99.90;;;;;;5034477;28;20190;-66
2023/02/12 02:57:25;;;;;;;24.15;14.75;;;7.50;99.90;;;;;;5034267;28;20214;-66
2023/02/12 02:59:56;;;;;;;19.60;13.63;;;7.50;99.90;;;;;;5034350;28;20191;-66
2023/02/12 03:02:28;;;;;;;27.98;13.95;;;7.50;99.90;;;;;;5034495;28;20229;-65
2023/02/12 03:04:59;;;;;;;23.05;13.93;;;7.50;99.90;;;;;;5034593;28;20214;-66
2023/02/12 03:07:29;;;;;;;20.05;11.93;;;7.50;99.90;;;;;;5034504;28;20198;-65
2023/02/12 03:09:59;;;;;;;19.30;14.32;;;7.50;99.90;;;;;;5034085;28;20183;-66
2023/02/12 03:12:33;;;;;;;24.33;14.57;;;7.50;99.90;;;;;;5034322;28;20221;-66
2023/02/12 03:15:08;;;;;;;26.35;14.88;;;7.50;99.90;;;;;;5034199;28;20197;-66
2023/02/12 03:17:41;;;;;;;19.77;12.50;;;7.50;99.90;;;;;;5034044;28;20232;-65
2023/02/12 03:20:12;;;;;;;24.65;15.52;;;7.50;99.90;;;;;;5034146;28;20186;-66
2023/02/12 03:22:43;;;;;;;23.85;14.50;;;7.50;99.90;;;;;;5034002;28;20191;-66
2023/02/12 03:25:14;;;;;;;20.70;12.93;;;7.40;99.90;;;;;;5033482;28;20183;-66
2023/02/12 03:27:46;;;;;;;19.85;13.20;;;7.50;99.90;;;;;;5034322;28;20198;-65
2023/02/12 03:30:14;;;;;;;18.25;12.68;;;7.40;99.90;;;;;;5033395;28;20662;-65
2023/02/12 03:32:50;;;;;;;21.45;12.50;;;7.40;99.90;;;;;;5033878;28;20209;-66
2023/02/12 03:35:23;;;;;;;18.98;12.15;;;7.40;99.90;;;;;;5033613;28;20186;-66
2023/02/12 03:37:56;;;;;;;18.23;11.13;;;7.40;99.90;;;;;;5033470;28;20297;-65
2023/02/12 03:40:30;;;;;;;18.90;12.15;;;7.40;99.90;;;;;;5033861;28;20631;-65
2023/02/12 03:43:02;;;;;;;17.02;14.45;;;7.30;99.90;;;;;;5034113;28;20194;-65
2023/02/12 03:45:38;;;;;;;19.35;12.40;;;7.30;99.90;;;;;;5033710;28;20186;-66
2023/02/12 03:48:11;;;;;;;20.83;12.13;;;7.30;99.90;;;;;;5033794;28;20178;-66
2023/02/12 03:50:44;;;;;;;15.40;10.45;;;7.30;99.90;;;;;;5032928;28;20717;-66
2023/02/12 03:53:11;;;;;;;17.23;11.30;;;7.30;99.90;;;;;;5033737;28;20186;-66
2023/02/12 03:55:42;;;;;;;18.23;12.60;;;7.30;99.90;;;;;;5034907;28;20288;-66
2023/02/12 03:58:12;;;;;;;15.57;11.25;;;7.30;99.90;;;;;;5033946;28;20210;-65
2023/02/12 04:00:39;;;;;;;17.98;11.00;;;7.30;99.90;;;;;;5032705;28;20233;-65
2023/02/12 04:03:09;;;;;;;22.80;11.50;;;7.30;99.90;;;;;;5033510;28;20550;-65
2023/02/12 04:05:36;;;;;;;14.07;11.35;;;7.30;99.90;;;;;;5033441;28;20225;-65
2023/02/12 04:11:17;;;;;;;19.27;12.02;;;7.30;99.90;;;;;;5091374;28;20954;-64
2023/02/12 04:13:57;;;;;;;18.08;11.85;;;7.20;99.90;;;;;;5090617;28;20181;-64
2023/02/12 04:16:29;;;;;;;22.27;12.70;;;7.20;99.90;;;;;;5090799;28;20184;-64
2023/02/12 04:18:56;;;;;;;18.10;12.27;;;7.20;99.90;;;;;;5090671;28;20565;-66
2023/02/12 04:21:38;;;;;;;21.15;13.40;;;7.20;99.90;;;;;;5090927;28;20231;-66
2023/02/12 04:24:13;;;;;;;19.27;12.25;;;7.20;99.90;;;;;;5094522;22;20252;-64
2023/02/12 04:26:49;;;;;;;21.15;13.80;;;7.20;99.90;;;;;;5050976;28;20611;-64
2023/02/12 04:29:23;;;;;;;22.40;12.40;;;7.20;99.90;;;;;;5050109;28;20207;-65
2023/02/12 04:31:53;;;;;;;16.65;12.35;;;7.20;99.90;;;;;;5051097;28;20193;-64
2023/02/12 04:34:27;;;;;;;17.00;12.55;;;7.20;99.90;;;;;;5050474;28;20736;-64
2023/02/12 04:36:58;;;;;;;20.33;12.43;;;7.20;99.90;;;;;;5051717;28;20651;-65
2023/02/12 04:39:28;;;;;;;16.90;11.85;;;7.30;99.90;;;;;;5060961;28;20178;-65
2023/02/12 04:41:59;;;;;;;14.75;10.73;;;7.30;99.90;;;;;;5061901;28;20186;-66
2023/02/12 04:44:30;;;;;;;20.95;12.20;;;7.30;99.90;;;;;;5061061;28;20226;-65
2023/02/12 04:46:58;;;;;;;14.63;10.25;;;7.30;99.90;;;;;;5059630;28;20258;-65
2023/02/12 04:49:25;;;;;;;18.35;12.10;;;7.30;99.90;;;;;;5053294;28;20217;-66
2023/02/12 04:51:53;;;;;;;20.95;11.77;;;7.20;99.90;;;;;;5050164;28;20218;-64
2023/02/12 04:54:22;;;;;;;16.42;11.63;;;7.30;99.90;;;;;;5050474;28;20601;-64
2023/02/12 04:56:49;;;;;;;18.63;11.13;;;7.20;99.90;;;;;;5050090;28;20634;-64
2023/02/12 04:59:17;;;;;;;16.23;11.57;;;7.20;99.90;;;;;;5050966;28;20209;-65
2023/02/12 05:01:44;;;;;;;20.10;11.88;;;7.30;99.90;;;;;;5049876;28;20209;-65
2023/02/12 05:04:13;;;;;;;20.98;12.63;;;7.20;99.90;;;;;;5052318;28;20218;-64
2023/02/12 05:06:41;;;;;;;18.27;11.45;;;7.20;99.90;;;;;;5037496;28;20577;-63
2023/02/12 05:09:13;;;;;;;20.38;11.18;;;7.20;99.90;;;;;;5030018;28;20215;-65
2023/02/12 05:11:39;;;;;;;17.40;10.38;;;7.20;99.90;;;;;;5029564;28;20191;-65
2023/02/12 05:14:06;;;;;;;26.55;11.32;;;7.20;99.90;;;;;;5029608;28;20230;-65
2023/02/12 05:16:34;;;;;;;20.45;12.48;;;7.20;99.90;;;;;;5029205;28;20689;-65
2023/02/12 05:19:01;;;;;;;21.67;12.85;;;7.20;99.90;;;;;;5029572;28;20203;-64
2023/02/12 05:21:28;;;;;;;18.35;11.07;;;7.10;99.90;;;;;;5032449;28;20550;-64
2023/02/12 05:23:55;;;;;;;17.85;10.77;;;7.20;99.90;;;;;;5055648;28;20234;-65
2023/02/12 05:26:22;;;;;;;20.80;11.50;;;7.20;99.90;;;;;;5056107;28;20206;-65
2023/02/12 05:28:49;;;;;;;16.42;11.48;;;7.10;99.90;;;;;;5056273;28;20212;-65
2023/02/12 05:31:18;;;;;;;21.27;12.05;;;7.20;99.90;;;;;;5055742;28;20612;-64
2023/02/12 05:33:47;;;;;;;19.23;10.65;;;7.10;99.90;;;;;;5055520;28;20747;-65
2023/02/12 05:36:16;;;;;;;20.40;13.95;;;7.10;99.90;;;;;;5049732;28;20278;-66
2023/02/12 05:38:44;;;;;;;20.25;12.35;;;7.20;99.90;;;;;;5044728;28;20208;-64
2023/02/12 05:41:12;;;;;;;18.63;12.77;;;7.20;99.90;;;;;;5054450;28;20202;-64
2023/02/12 05:43:39;;;;;;;18.83;11.07;;;7.20;99.90;;;;;;5039721;28;20732;-64
2023/02/12 05:46:06;;;;;;;25.73;13.70;;;7.20;99.90;;;;;;5041954;28;20203;-63
2023/02/12 05:48:34;;;;;;;20.98;12.05;;;7.20;99.90;;;;;;5016545;28;20207;-65
2023/02/12 05:51:04;;;;;;;19.73;12.65;;;7.20;99.90;;;;;;5030572;28;20218;-64
2023/02/12 05:53:30;;;;;;;17.75;11.52;;;7.10;99.90;;;;;;5036278;28;20217;-65
2023/02/12 05:56:08;;;;;;;22.25;13.50;;;7.20;99.90;;;;;;5035541;28;20203;-64
2023/02/12 05:58:34;;;;;;;22.23;13.38;;;7.20;99.90;;;;;;5034549;28;20670;-65
2023/02/12 06:01:01;;;;;;;18.55;12.05;;;7.20;99.90;;;;;;5039400;28;20194;-64
2023/02/12 06:03:28;;;;;;;17.10;11.55;;;7.20;99.90;;;;;;5028331;28;20723;-64
2023/02/12 06:05:55;;;;;;;19.17;11.55;;;7.20;99.90;;;;;;5022589;28;20299;-64
2023/02/12 06:08:23;;;;;;;17.95;11.88;;;7.20;99.90;;;;;;5042674;28;20203;-64
2023/02/12 06:10:49;;;;;;;16.90;11.60;;;7.20;99.90;;;;;;5045703;28;20222;-65
2023/02/12 06:13:16;;;;;;;23.30;13.52;;;7.20;99.90;;;;;;5040228;28;20219;-64
2023/02/12 06:15:43;;;;;;;19.77;12.60;;;7.10;99.90;;;;;;5044611;28;20210;-64
2023/02/12 06:18:10;;;;;;;20.75;12.27;;;7.10;99.90;;;;;;5041852;28;20213;-65
2023/02/12 06:20:38;;;;;;;20.83;12.43;;;7.10;99.90;;;;;;5036818;28;20194;-65
2023/02/12 06:23:05;;;;;;;22.33;13.30;;;7.10;99.90;;;;;;5021243;28;20233;-64
2023/02/12 06:25:33;;;;;;;22.55;13.55;;;7.10;99.90;;;;;;5032479;28;20538;-63
2023/02/12 06:28:00;;;;;;;21.83;12.85;;;7.20;99.90;;;;;;5041048;28;20580;-65
2023/02/12 06:30:27;;;;;;;20.15;13.20;;;7.10;99.90;;;;;;5044568;28;20466;-64
2023/02/12 06:32:53;;;;;;;26.05;13.80;;;7.20;99.90;;;;;;5042072;28;20195;-64
2023/02/12 06:35:20;;;;;;;22.60;14.18;;;7.10;99.90;;;;;;5046345;28;20205;-64
2023/02/12 06:37:47;;;;;;;20.48;13.25;;;7.20;99.90;;;;;;5040564;28;20209;-65
2023/02/12 06:40:14;;;;;;;22.75;13.70;;;7.20;99.90;;;;;;5044539;28;20198;-65
2023/02/12 06:42:42;;;;;;;21.40;12.70;;;7.20;99.90;;;;;;5036814;28;20207;-66
2023/02/12 06:45:09;;;;;;;22.58;13.13;;;7.20;99.90;;;;;;5038965;28;20229;-65
2023/02/12 06:47:36;;;;;;;25.55;14.07;;;7.20;99.90;;;;;;5039907;28;20203;-64
2023/02/12 06:50:04;;;;;;;21.23;13.07;;;7.20;99.90;;;;;;5037697;28;20214;-65
2023/02/12 06:52:30;;;;;;;25.55;14.52;;;7.20;99.90;;;;;;5038657;28;20574;-64
2023/02/12 06:54:57;;;;;;;28.08;13.93;;;7.20;99.90;;;;;;5041415;28;20294;-64
2023/02/12 06:57:24;;;;;;;26.75;15.02;;;7.20;99.90;;;;;;5041722;28;20210;-65
2023/02/12 06:59:52;;;;;;;24.52;13.10;;;7.20;99.90;;;;;;5039756;28;20199;-64
2023/02/12 07:02:19;;;;;;;27.38;15.07;;;7.20;99.90;;;;;;5037372;28;20212;-64
2023/02/12 07:04:45;;;;;;;26.27;14.90;;;7.20;99.90;;;;;;5037929;28;20614;-65
2023/02/12 07:07:12;;;;;;;25.05;15.18;;;7.20;99.90;;;;;;5037730;28;20221;-65
2023/02/12 07:09:39;;;;;;;25.45;14.55;;;7.20;99.90;;;;;;5033955;28;20203;-65
2023/02/12 07:12:06;;;;;;;28.25;15.15;;;7.20;99.90;;;;;;5035644;28;20213;-64
2023/02/12 07:14:34;;;;;;;25.25;15.63;;;7.20;99.90;;;;;;5033567;28;20229;-65
2023/02/12 07:17:02;;;;;;;26.15;15.60;;;7.20;99.90;;;;;;5033999;28;20199;-64
2023/02/12 07:19:29;;;;;;;21.83;14.50;;;7.30;99.90;;;;;;5033903;28;20252;-64
2023/02/12 07:21:56;;;;;;;25.67;13.57;;;7.30;99.90;;;;;;5034091;28;20202;-64
2023/02/12 07:24:23;;;;;;;26.38;14.85;;;7.30;99.90;;;;;;5033635;28;20236;-65
2023/02/12 07:26:50;;;;;;;25.33;14.70;;;7.30;99.90;;;;;;5033915;28;20221;-65
2023/02/12 07:29:17;;;;;;;24.02;14.35;;;7.30;99.90;;;;;;5037534;28;20210;-64
2023/02/12 07:31:43;;;;;;;28.15;15.63;;;7.30;99.90;;;;;;5034542;28;20226;-64
2023/02/12 07:34:11;;;;;;;27.00;15.13;;;7.30;99.90;;;;;;5033402;28;20229;-65
2023/02/12 07:36:38;;;;;;;25.23;14.20;;;7.40;99.90;;;;;;5033942;28;20194;-64
2023/02/12 07:39:05;;;;;;;23.15;15.10;;;7.40;99.90;;;;;;5034230;28;20207;-65
2023/02/12 07:41:33;;;;;;;20.63;13.43;;;7.30;99.90;;;;;;5032953;28;20195;-65
2023/02/12 07:44:05;;;;;;;24.02;13.65;;;7.40;99.90;;;;;;5033732;28;20233;-64
2023/02/12 07:46:34;;;;;;;20.02;13.23;;;7.40;99.90;;;;;;5034094;28;20191;-65
2023/02/12 07:49:03;;;;;;;19.63;11.35;;;7.40;99.90;;;;;;5034515;28;20202;-65
2023/02/12 07:51:32;;;;;;;20.90;12.70;;;7.40;99.90;;;;;;5033411;28;20261;-64
2023/02/12 07:54:00;;;;;;;21.75;13.80;;;7.50;99.90;;;;;;5034307;28;20223;-64
2023/02/12 07:56:31;;;;;;;21.30;12.77;;;7.50;99.90;;;;;;5049443;28;20255;-65
2023/02/12 07:58:59;;;;;;;22.17;13.10;;;7.50;99.90;;;;;;5053448;28;20193;-64
2023/02/12 08:01:28;;;;;;;22.30;14.40;;;7.60;99.90;;;;;;5053447;28;20202;-64
2023/02/12 08:03:58;;;;;;;26.88;16.02;;;7.60;99.90;;;;;;5053265;28;20599;-65
2023/02/12 08:06:26;;;;;;;31.60;15.25;;;7.60;99.90;;;;;;5053198;28;20216;-64
2023/02/12 08:08:56;;;;;;;22.13;15.80;;;7.70;99.90;;;;;;5053266;28;20202;-65
2023/02/12 08:11:24;;;;;;;28.10;16.67;;;7.70;99.90;;;;;;5053538;28;20321;-64
2023/02/12 08:13:51;;;;;;;30.65;17.10;;;7.70;99.90;;;;;;5054335;28;20248;-64
2023/02/12 08:16:21;;;;;;;37.85;17.45;;;7.70;99.90;;;;;;5052950;28;20209;-65
2023/02/12 08:18:48;;;;;;;31.88;17.23;;;7.70;99.90;;;;;;5053538;28;20203;-65
2023/02/12 08:21:17;;;;;;;28.20;16.85;;;7.70;99.90;;;;;;5053584;28;20204;-65
2023/02/12 08:23:44;;;;;;;31.23;17.40;;;7.80;99.90;;;;;;5053855;28;20303;-65
2023/02/12 08:26:14;;;;;;;35.92;18.88;;;7.80;99.90;;;;;;5054890;28;20248;-65
2023/02/12 08:28:43;;;;;;;35.25;18.23;;;7.80;99.90;;;;;;5053362;28;20206;-64
2023/02/12 08:31:13;;;;;;;31.48;17.63;;;7.80;99.90;;;;;;5053039;28;20668;-64
2023/02/12 08:33:40;;;;;;;34.72;17.30;;;7.80;99.90;;;;;;5053362;28;20232;-65
2023/02/12 08:36:09;;;;;;;35.70;18.00;;;7.80;99.90;;;;;;5053405;28;20526;-64
2023/02/12 08:38:36;;;;;;;36.55;18.10;;;7.80;99.90;;;;;;5053340;28;20255;-65
2023/02/12 08:41:04;;;;;;;32.47;18.45;;;7.80;99.90;;;;;;5053297;28;20198;-65
2023/02/12 08:43:32;;;;;;;37.83;19.58;;;7.80;99.90;;;;;;5053436;28;20232;-65
2023/02/12 08:46:03;;;;;;;32.35;16.70;;;7.90;99.90;;;;;;5053633;28;20202;-64
2023/02/12 08:48:30;;;;;;;37.35;17.02;;;7.90;99.90;;;;;;5053407;28;20186;-65
2023/02/12 08:50:56;;;;;;;29.73;15.25;;;8.00;99.90;;;;;;5053223;28;20226;-63
2023/02/12 08:53:23;;;;;;;30.73;15.05;;;8.00;99.90;;;;;;5053737;28;20729;-64
2023/02/12 08:55:50;;;;;;;28.85;14.68;;;8.00;99.90;;;;;;5053584;28;20206;-65
2023/02/12 08:58:17;;;;;;;23.33;14.02;;;8.00;99.90;;;;;;5057348;28;20296;-65
2023/02/12 09:00:45;;;;;;;31.95;15.25;;;8.00;99.90;;;;;;5056895;28;20206;-63
2023/02/12 09:03:12;;;;;;;28.02;16.00;;;8.10;99.90;;;;;;5057483;28;20260;-64
2023/02/12 09:05:40;;;;;;;27.55;13.32;;;8.10;99.90;;;;;;5057244;28;20202;-65
2023/02/12 09:08:07;;;;;;;28.92;14.65;;;8.20;99.90;;;;;;5056574;28;20615;-64
2023/02/12 09:10:34;;;;;;;25.90;13.85;;;8.20;99.90;;;;;;5056309;28;20226;-65
2023/02/12 09:13:01;;;;;;;28.85;14.55;;;8.30;99.90;;;;;;5056466;28;20206;-65
2023/02/12 09:15:28;;;;;;;31.05;16.13;;;8.30;99.90;;;;;;5057105;28;20205;-65
2023/02/12 09:17:56;;;;;;;30.48;15.68;;;8.30;99.90;;;;;;5056731;28;20525;-64
2023/02/12 09:20:23;;;;;;;23.02;11.80;;;8.40;99.90;;;;;;5057246;28;20198;-65
2023/02/12 09:22:50;;;;;;;28.13;12.30;;;8.40;99.90;;;;;;5057333;28;20673;-62
2023/02/12 09:25:16;;;;;;;26.88;15.18;;;8.40;99.90;;;;;;5056863;28;20637;-65
2023/02/12 09:27:43;;;;;;;24.05;14.23;;;8.40;99.90;;;;;;5056622;28;20204;-65
2023/02/12 09:30:11;;;;;;;24.52;13.85;;;8.40;99.90;;;;;;5055983;28;20633;-65
2023/02/12 09:32:38;;;;;;;20.02;11.45;;;8.40;99.90;;;;;;5055879;28;20223;-65
2023/02/12 09:35:06;;;;;;;20.25;12.02;;;8.40;99.90;;;;;;5056156;28;20226;-65
2023/02/12 09:37:33;;;;;;;19.80;13.13;;;8.40;99.90;;;;;;5056557;28;20697;-64
2023/02/12 09:40:00;;;;;;;21.63;11.75;;;8.40;99.90;;;;;;5055888;28;20683;-65
2023/02/12 09:42:45;;;;;;;17.00;11.05;;;8.40;99.90;;;;;;5056363;28;20201;-65
2023/02/12 09:45:20;;;;;;;23.67;12.48;;;8.40;99.90;;;;;;5057177;28;20225;-65
2023/02/12 09:47:53;;;;;;;23.42;13.52;;;8.40;99.90;;;;;;5058576;28;20193;-65
2023/02/12 09:50:33;;;;;;;22.00;13.43;;;8.40;99.90;;;;;;5068144;28;20201;-64
2023/02/12 09:53:01;;;;;;;21.70;12.30;;;8.40;99.90;;;;;;5059321;28;20237;-66
2023/02/12 09:55:30;;;;;;;22.27;12.43;;;8.40;99.90;;;;;;5057823;28;20205;-67
2023/02/12 09:57:58;;;;;;;23.10;14.07;;;8.40;99.90;;;;;;5056866;28;20206;-67
2023/02/12 10:00:29;;;;;;;19.70;11.82;;;8.40;99.90;;;;;;5057053;28;20677;-65
2023/02/12 10:02:57;;;;;;;25.40;13.80;;;8.40;99.90;;;;;;5057345;28;20208;-64
2023/02/12 10:05:33;;;;;;;19.80;11.43;;;8.40;99.90;;;;;;5056390;28;20685;-65
2023/02/12 10:08:25;;;;;;;18.85;11.98;;;8.40;99.90;;;;;;5056293;28;20582;-65
2023/02/12 10:10:55;;;;;;;21.50;10.75;;;8.50;99.90;;;;;;5056737;28;20210;-64
2023/02/12 10:13:36;;;;;;;16.13;9.85;;;8.50;99.90;;;;;;5057206;28;20229;-64
2023/02/12 10:16:12;;;;;;;19.08;12.73;;;8.60;99.90;;;;;;5056610;28;20660;-64
2023/02/12 10:18:53;;;;;;;16.02;10.98;;;8.60;99.90;;;;;;5056289;28;20190;-65
2023/02/12 10:21:38;;;;;;;13.82;9.77;;;8.70;99.90;;;;;;5056470;28;20190;-64
2023/02/12 10:24:19;;;;;;;15.93;11.07;;;8.70;99.90;;;;;;5080879;22;20233;-64
2023/02/12 10:26:49;;;;;;;10.15;8.63;;;8.70;99.90;;;;;;5014369;28;20664;-65
2023/02/12 10:29:19;;;;;;;12.00;9.40;;;8.80;99.90;;;;;;5015336;28;20202;-65
2023/02/12 10:31:50;;;;;;;15.27;10.23;;;8.80;99.90;;;;;;5015704;28;20218;-65
2023/02/12 10:34:20;;;;;;;13.20;10.02;;;8.80;99.90;;;;;;5015198;28;20573;-64
2023/02/12 10:36:51;;;;;;;13.38;8.95;;;8.80;99.90;;;;;;5015556;28;20191;-65
2023/02/12 10:39:22;;;;;;;11.52;9.02;;;8.90;99.90;;;;;;5016127;28;20734;-63
2023/02/12 10:41:55;;;;;;;16.42;11.07;;;8.90;99.90;;;;;;5017119;28;20624;-64
2023/02/12 10:44:22;;;;;;;12.38;9.75;;;9.00;99.90;;;;;;5016462;28;20258;-64
2023/02/12 10:46:49;;;;;;;13.20;10.13;;;9.00;99.90;;;;;;5016667;28;20199;-65
2023/02/12 10:49:18;;;;;;;12.13;10.38;;;9.10;99.90;;;;;;5015218;28;20203;-65
2023/02/12 10:52:12;;;;;;;13.95;9.80;;;9.10;99.90;;;;;;5014755;28;20235;-64
2023/02/12 10:54:41;;;;;;;14.65;10.82;;;9.20;99.90;;;;;;5013068;28;20228;-64
2023/02/12 10:57:17;;;;;;;14.15;10.70;;;9.30;99.90;;;;;;5015790;28;20208;-65
2023/02/12 10:59:45;;;;;;;15.30;10.97;;;9.40;99.90;;;;;;5014984;28;20632;-66
2023/02/12 11:02:24;;;;;;;12.55;10.02;;;9.50;99.90;;;;;;5016909;28;20935;-64
2023/02/12 11:04:53;;;;;;;11.77;10.57;;;9.50;99.90;;;;;;5016316;28;20226;-66
2023/02/12 11:07:22;;;;;;;13.30;10.18;;;9.60;99.90;;;;;;5016154;28;20445;-65
2023/02/12 11:09:51;;;;;;;7.23;5.87;;;9.60;99.90;;;;;;5015900;28;20210;-65
2023/02/12 11:12:29;;;;;;;7.33;5.70;;;9.70;99.90;;;;;;5015705;28;20491;-65
2023/02/12 11:14:59;;;;;;;8.48;6.50;;;9.60;99.90;;;;;;5015067;28;20502;-65
2023/02/12 11:17:30;;;;;;;10.67;6.80;;;9.60;99.90;;;;;;5015196;28;20207;-64
2023/02/12 11:20:08;;;;;;;7.95;6.63;;;9.70;99.90;;;;;;5014324;28;20442;-64
2023/02/12 11:22:37;;;;;;;8.53;6.00;;;9.70;99.90;;;;;;5014146;28;20195;-64
2023/02/12 11:25:15;;;;;;;8.80;6.50;;;9.70;99.90;;;;;;5013565;28;20574;-63
2023/02/12 11:27:42;;;;;;;9.13;6.20;;;9.70;99.90;;;;;;5013755;28;20428;-63
2023/02/12 11:30:20;;;;;;;8.07;6.87;;;9.60;99.90;;;;;;5014113;28;20448;-63
2023/02/12 11:32:48;;;;;;;8.00;6.43;;;9.50;99.90;;;;;;5014017;28;20470;-64
2023/02/12 11:35:22;;;;;;;8.67;6.47;;;9.50;99.90;;;;;;5013984;28;20472;-63
2023/02/12 11:37:53;;;;;;;7.30;6.30;;;9.50;99.90;;;;;;5013993;28;20459;-65
2023/02/12 11:40:23;;;;;;;7.27;5.80;;;9.50;99.90;;;;;;5013687;28;20427;-64
2023/02/12 11:42:52;;;;;;;8.18;6.38;;;9.50;99.90;;;;;;5013795;28;20442;-64
2023/02/12 11:45:22;;;;;;;7.97;6.80;;;9.60;99.90;;;;;;5015438;28;20222;-65
2023/02/12 11:47:50;;;;;;;7.13;5.80;;;9.60;99.90;;;;;;5015918;28;20849;-64
2023/02/12 11:50:25;;;;;;;7.90;6.38;;;9.70;99.90;;;;;;5014757;28;20469;-63
2023/02/12 11:52:58;;;;;;;8.40;6.73;;;9.80;99.90;;;;;;5015160;28;20207;-65
2023/02/12 11:55:38;;;;;;;6.80;5.70;;;9.90;99.90;;;;;;5013836;28;20834;-64
2023/02/12 11:58:15;;;;;;;8.93;7.10;;;10.00;99.90;;;;;;5013679;28;20443;-64
2023/02/12 12:00:49;;;;;;;9.13;7.20;;;10.10;99.90;;;;;;5013849;28;20438;-63
2023/02/12 12:03:21;;;;;;;10.83;7.30;;;10.10;99.90;;;;;;5013669;28;20518;-64
2023/02/12 12:05:50;;;;;;;9.60;7.33;;;10.10;99.90;;;;;;5013492;28;20470;-64
2023/02/12 12:08:24;;;;;;;10.80;7.47;;;10.10;99.90;;;;;;5013464;28;20836;-63
2023/02/12 12:10:56;;;;;;;9.37;7.30;;;10.10;99.90;;;;;;5013498;28;20781;-65
2023/02/12 12:13:29;;;;;;;10.30;7.57;;;10.10;99.90;;;;;;5013300;28;20857;-64
2023/02/12 12:21:46;;;;;;;10.80;8.90;;;10.10;99.90;;;;;;5013617;28;20466;-65
2023/02/12 12:24:20;;;;;;;13.70;9.93;;;10.00;99.90;;;;;;5013686;28;20471;-64
2023/02/12 12:26:59;;;;;;;11.40;9.53;;;10.10;99.90;;;;;;5013454;28;20883;-65
2023/02/12 12:29:34;;;;;;;15.53;10.97;;;10.10;99.90;;;;;;5013725;28;20438;-65
2023/02/12 12:32:03;;;;;;;16.80;11.87;;;10.10;99.90;;;;;;5015724;28;20466;-64
2023/02/12 12:34:30;;;;;;;16.70;14.67;;;10.10;99.90;;;;;;5017444;28;20474;-64
2023/02/12 12:37:10;;;;;;;16.33;13.23;;;10.10;99.90;;;;;;5017733;28;20446;-65
2023/02/12 12:39:49;;;;;;;16.13;12.70;;;10.00;99.90;;;;;;5017500;28;20942;-64
2023/02/12 12:42:47;;;;;;;21.40;13.47;;;10.00;99.90;;;;;;5017949;28;20541;-65
2023/02/12 12:45:29;;;;;;;19.93;14.30;;;9.90;99.90;;;;;;5016842;28;20475;-66
2023/02/12 12:48:12;;;;;;;20.33;14.30;;;9.80;99.90;;;;;;5017263;28;20427;-65
2023/02/12 12:51:00;;;;;;;21.20;15.43;;;9.80;99.90;;;;;;5017394;28;20441;-65
2023/02/12 12:53:38;;;;;;;19.50;14.80;;;9.80;99.90;;;;;;5017377;28;20474;-65
2023/02/12 12:56:17;;;;;;;20.20;16.27;;;9.70;99.90;;;;;;5017581;28;20480;-64
2023/02/12 12:59:03;;;;;;;19.47;15.80;;;9.60;99.90;;;;;;5018303;28;20795;-65
2023/02/12 13:01:48;;;;;;;19.80;15.10;;;9.60;99.90;;;;;;5017839;28;20435;-64
2023/02/12 13:05:05;;;;;;;18.50;14.48;;;9.50;99.90;;;;;;5017860;28;20554;-65
2023/02/12 13:07:46;;;;;;;16.25;12.43;;;9.50;99.90;;;;;;5014569;28;20587;-64